sensor_id;sensor_type;location;lat;lon;timestamp;P1;durP1;ratioP1;P2;durP2;ratioP2
5805;SDS011;2929;50.810;8.342;2022-07-04T00:01:56;4.13;;;2.00;;
5805;SDS011;2929;50.810;8.342;2022-07-04T00:04:23;5.03;;;2.23;;
5805;SDS011;2929;50.810;8.342;2022-07-04T00:06:50;4.57;;;2.00;;
5805;SDS011;2929;50.810;8.342;2022-07-04T00:09:17;9.10;;;2.37;;
5805;SDS011;2929;50.810;8.342;2022-07-04T00:11:44;7.07;;;2.47;;
5805;SDS011;2929;50.810;8.342;2022-07-04T00:14:11;4.00;;;2.30;;
5805;SDS011;2929;50.810;8.342;2022-07-04T00:16:39;6.10;;;1.70;;
5805;SDS011;2929;50.810;8.342;2022-07-04T00:19:06;2.20;;;2.00;;
5805;SDS011;2929;50.810;8.342;2022-07-04T00:21:34;2.60;;;2.10;;
5805;SDS011;2929;50.810;8.342;2022-07-04T00:24:01;5.93;;;1.97;;
5805;SDS011;2929;50.810;8.342;2022-07-04T00:26:28;2.23;;;2.03;;
5805;SDS011;2929;50.810;8.342;2022-07-04T00:28:55;3.13;;;2.40;;
5805;SDS011;2929;50.810;8.342;2022-07-04T00:31:22;3.63;;;2.30;;
5805;SDS011;2929;50.810;8.342;2022-07-04T00:33:50;7.60;;;1.80;;
5805;SDS011;2929;50.810;8.342;2022-07-04T00:36:17;4.57;;;2.33;;
5805;SDS011;2929;50.810;8.342;2022-07-04T00:38:45;10.10;;;2.20;;
5805;SDS011;2929;50.810;8.342;2022-07-04T00:41:12;5.60;;;2.50;;
5805;SDS011;2929;50.810;8.342;2022-07-04T00:43:39;6.30;;;1.80;;
5805;SDS011;2929;50.810;8.342;2022-07-04T00:46:06;7.00;;;2.00;;
5805;SDS011;2929;50.810;8.342;2022-07-04T00:48:33;2.50;;;1.77;;
5805;SDS011;2929;50.810;8.342;2022-07-04T00:51:02;2.33;;;2.13;;
5805;SDS011;2929;50.810;8.342;2022-07-04T00:53:29;5.57;;;2.30;;
5805;SDS011;2929;50.810;8.342;2022-07-04T00:55:56;3.37;;;2.00;;
5805;SDS011;2929;50.810;8.342;2022-07-04T00:58:23;3.33;;;2.13;;
5805;SDS011;2929;50.810;8.342;2022-07-04T01:00:50;3.53;;;2.57;;
5805;SDS011;2929;50.810;8.342;2022-07-04T01:03:17;3.83;;;2.50;;
5805;SDS011;2929;50.810;8.342;2022-07-04T01:05:44;9.63;;;2.40;;
5805;SDS011;2929;50.810;8.342;2022-07-04T01:08:13;2.90;;;2.60;;
5805;SDS011;2929;50.810;8.342;2022-07-04T01:10:41;4.40;;;2.90;;
5805;SDS011;2929;50.810;8.342;2022-07-04T01:13:08;2.73;;;2.50;;
5805;SDS011;2929;50.810;8.342;2022-07-04T01:15:44;4.07;;;2.73;;
5805;SDS011;2929;50.810;8.342;2022-07-04T01:18:11;3.47;;;2.70;;
5805;SDS011;2929;50.810;8.342;2022-07-04T01:20:40;2.70;;;2.47;;
5805;SDS011;2929;50.810;8.342;2022-07-04T01:23:07;7.40;;;3.03;;
5805;SDS011;2929;50.810;8.342;2022-07-04T01:25:34;5.60;;;2.67;;
5805;SDS011;2929;50.810;8.342;2022-07-04T01:28:03;4.53;;;2.73;;
5805;SDS011;2929;50.810;8.342;2022-07-04T01:30:32;2.87;;;2.67;;
5805;SDS011;2929;50.810;8.342;2022-07-04T01:33:00;3.13;;;2.40;;
5805;SDS011;2929;50.810;8.342;2022-07-04T01:35:27;3.97;;;2.70;;
5805;SDS011;2929;50.810;8.342;2022-07-04T01:37:56;7.00;;;2.90;;
5805;SDS011;2929;50.810;8.342;2022-07-04T01:40:23;4.93;;;3.30;;
5805;SDS011;2929;50.810;8.342;2022-07-04T01:42:50;4.43;;;3.50;;
5805;SDS011;2929;50.810;8.342;2022-07-04T01:45:17;5.47;;;4.00;;
5805;SDS011;2929;50.810;8.342;2022-07-04T01:47:44;5.13;;;3.57;;
5805;SDS011;2929;50.810;8.342;2022-07-04T01:50:11;5.30;;;3.50;;
5805;SDS011;2929;50.810;8.342;2022-07-04T01:52:38;6.20;;;2.90;;
5805;SDS011;2929;50.810;8.342;2022-07-04T01:55:08;5.50;;;3.40;;
5805;SDS011;2929;50.810;8.342;2022-07-04T01:57:35;4.53;;;2.67;;
5805;SDS011;2929;50.810;8.342;2022-07-04T02:00:03;4.80;;;3.43;;
5805;SDS011;2929;50.810;8.342;2022-07-04T02:02:48;4.83;;;3.10;;
5805;SDS011;2929;50.810;8.342;2022-07-04T02:05:15;5.23;;;3.70;;
5805;SDS011;2929;50.810;8.342;2022-07-04T02:07:43;3.50;;;3.20;;
5805;SDS011;2929;50.810;8.342;2022-07-04T02:10:11;5.13;;;3.37;;
5805;SDS011;2929;50.810;8.342;2022-07-04T02:12:38;10.10;;;3.43;;
5805;SDS011;2929;50.810;8.342;2022-07-04T02:15:23;6.83;;;3.17;;
5805;SDS011;2929;50.810;8.342;2022-07-04T02:17:50;5.70;;;3.47;;
5805;SDS011;2929;50.810;8.342;2022-07-04T02:20:17;5.07;;;3.97;;
5805;SDS011;2929;50.810;8.342;2022-07-04T02:22:44;4.40;;;3.40;;
5805;SDS011;2929;50.810;8.342;2022-07-04T02:25:13;5.53;;;2.67;;
5805;SDS011;2929;50.810;8.342;2022-07-04T02:27:40;6.50;;;2.67;;
5805;SDS011;2929;50.810;8.342;2022-07-04T02:30:07;6.20;;;2.77;;
5805;SDS011;2929;50.810;8.342;2022-07-04T02:32:35;3.90;;;3.50;;
5805;SDS011;2929;50.810;8.342;2022-07-04T02:35:02;12.23;;;5.40;;
5805;SDS011;2929;50.810;8.342;2022-07-04T02:37:30;6.80;;;4.30;;
5805;SDS011;2929;50.810;8.342;2022-07-04T02:39:57;5.20;;;4.27;;
5805;SDS011;2929;50.810;8.342;2022-07-04T02:42:29;6.07;;;3.50;;
5805;SDS011;2929;50.810;8.342;2022-07-04T02:44:56;6.00;;;3.10;;
5805;SDS011;2929;50.810;8.342;2022-07-04T02:47:24;3.80;;;3.40;;
5805;SDS011;2929;50.810;8.342;2022-07-04T02:49:51;4.50;;;2.70;;
5805;SDS011;2929;50.810;8.342;2022-07-04T02:52:18;5.53;;;3.03;;
5805;SDS011;2929;50.810;8.342;2022-07-04T02:54:45;2.70;;;2.50;;
5805;SDS011;2929;50.810;8.342;2022-07-04T02:57:13;2.80;;;2.10;;
5805;SDS011;2929;50.810;8.342;2022-07-04T02:59:42;3.83;;;1.97;;
5805;SDS011;2929;50.810;8.342;2022-07-04T03:02:09;7.80;;;3.00;;
5805;SDS011;2929;50.810;8.342;2022-07-04T03:04:36;7.20;;;3.20;;
5805;SDS011;2929;50.810;8.342;2022-07-04T03:07:05;9.73;;;3.67;;
5805;SDS011;2929;50.810;8.342;2022-07-04T03:09:33;9.00;;;3.97;;
5805;SDS011;2929;50.810;8.342;2022-07-04T03:12:00;2.70;;;2.50;;
5805;SDS011;2929;50.810;8.342;2022-07-04T03:14:28;4.40;;;2.60;;
5805;SDS011;2929;50.810;8.342;2022-07-04T03:16:56;2.77;;;2.43;;
5805;SDS011;2929;50.810;8.342;2022-07-04T03:19:24;5.83;;;2.80;;
5805;SDS011;2929;50.810;8.342;2022-07-04T03:21:51;2.73;;;2.53;;
5805;SDS011;2929;50.810;8.342;2022-07-04T03:24:18;7.23;;;3.00;;
5805;SDS011;2929;50.810;8.342;2022-07-04T03:26:45;3.20;;;2.87;;
5805;SDS011;2929;50.810;8.342;2022-07-04T03:29:12;6.20;;;2.90;;
5805;SDS011;2929;50.810;8.342;2022-07-04T03:31:39;3.37;;;2.60;;
5805;SDS011;2929;50.810;8.342;2022-07-04T03:34:07;6.70;;;4.63;;
5805;SDS011;2929;50.810;8.342;2022-07-04T03:36:34;8.77;;;4.80;;
5805;SDS011;2929;50.810;8.342;2022-07-04T03:39:02;8.80;;;4.93;;
5805;SDS011;2929;50.810;8.342;2022-07-04T03:41:29;12.10;;;6.03;;
5805;SDS011;2929;50.810;8.342;2022-07-04T03:43:56;7.03;;;4.23;;
5805;SDS011;2929;50.810;8.342;2022-07-04T03:46:23;13.37;;;4.80;;
5805;SDS011;2929;50.810;8.342;2022-07-04T03:48:50;7.00;;;3.10;;
5805;SDS011;2929;50.810;8.342;2022-07-04T03:51:20;5.07;;;3.40;;
5805;SDS011;2929;50.810;8.342;2022-07-04T03:53:48;5.13;;;3.53;;
5805;SDS011;2929;50.810;8.342;2022-07-04T03:56:15;7.60;;;4.70;;
5805;SDS011;2929;50.810;8.342;2022-07-04T03:58:43;10.07;;;6.37;;
5805;SDS011;2929;50.810;8.342;2022-07-04T04:01:14;14.40;;;6.97;;
5805;SDS011;2929;50.810;8.342;2022-07-04T04:03:42;14.87;;;7.10;;
5805;SDS011;2929;50.810;8.342;2022-07-04T04:06:28;12.40;;;7.97;;
5805;SDS011;2929;50.810;8.342;2022-07-04T04:08:56;11.80;;;4.90;;
5805;SDS011;2929;50.810;8.342;2022-07-04T04:11:24;5.87;;;4.37;;
5805;SDS011;2929;50.810;8.342;2022-07-04T04:13:51;5.53;;;3.90;;
5805;SDS011;2929;50.810;8.342;2022-07-04T04:16:18;4.27;;;3.20;;
5805;SDS011;2929;50.810;8.342;2022-07-04T04:18:45;4.73;;;3.20;;
5805;SDS011;2929;50.810;8.342;2022-07-04T04:21:12;7.67;;;3.40;;
5805;SDS011;2929;50.810;8.342;2022-07-04T04:23:41;16.60;;;3.33;;
5805;SDS011;2929;50.810;8.342;2022-07-04T04:26:08;5.33;;;3.80;;
5805;SDS011;2929;50.810;8.342;2022-07-04T04:28:35;11.37;;;4.40;;
5805;SDS011;2929;50.810;8.342;2022-07-04T04:31:02;6.87;;;3.03;;
5805;SDS011;2929;50.810;8.342;2022-07-04T04:33:29;4.77;;;2.93;;
5805;SDS011;2929;50.810;8.342;2022-07-04T04:35:56;5.70;;;3.53;;
5805;SDS011;2929;50.810;8.342;2022-07-04T04:38:23;4.83;;;3.10;;
5805;SDS011;2929;50.810;8.342;2022-07-04T04:40:52;13.13;;;3.70;;
5805;SDS011;2929;50.810;8.342;2022-07-04T04:43:19;3.10;;;2.90;;
5805;SDS011;2929;50.810;8.342;2022-07-04T04:45:46;7.30;;;3.00;;
5805;SDS011;2929;50.810;8.342;2022-07-04T04:48:13;3.90;;;2.40;;
5805;SDS011;2929;50.810;8.342;2022-07-04T04:50:40;16.93;;;3.27;;
5805;SDS011;2929;50.810;8.342;2022-07-04T04:53:07;7.47;;;3.20;;
5805;SDS011;2929;50.810;8.342;2022-07-04T04:55:34;13.97;;;4.17;;
5805;SDS011;2929;50.810;8.342;2022-07-04T04:58:02;10.87;;;4.50;;
5805;SDS011;2929;50.810;8.342;2022-07-04T05:00:29;13.97;;;4.10;;
5805;SDS011;2929;50.810;8.342;2022-07-04T05:02:57;8.53;;;4.33;;
5805;SDS011;2929;50.810;8.342;2022-07-04T05:05:24;6.20;;;4.23;;
5805;SDS011;2929;50.810;8.342;2022-07-04T05:07:51;10.27;;;4.60;;
5805;SDS011;2929;50.810;8.342;2022-07-04T05:10:19;6.30;;;3.83;;
5805;SDS011;2929;50.810;8.342;2022-07-04T05:12:45;3.90;;;3.33;;
5805;SDS011;2929;50.810;8.342;2022-07-04T05:15:14;5.77;;;2.97;;
5805;SDS011;2929;50.810;8.342;2022-07-04T05:17:41;5.80;;;4.40;;
5805;SDS011;2929;50.810;8.342;2022-07-04T05:20:08;5.20;;;3.30;;
5805;SDS011;2929;50.810;8.342;2022-07-04T05:22:36;9.07;;;4.00;;
5805;SDS011;2929;50.810;8.342;2022-07-04T05:25:03;10.40;;;3.20;;
5805;SDS011;2929;50.810;8.342;2022-07-04T05:27:32;4.20;;;2.93;;
5805;SDS011;2929;50.810;8.342;2022-07-04T05:29:59;4.13;;;2.70;;
5805;SDS011;2929;50.810;8.342;2022-07-04T05:32:27;5.20;;;3.37;;
5805;SDS011;2929;50.810;8.342;2022-07-04T05:34:55;4.67;;;3.20;;
5805;SDS011;2929;50.810;8.342;2022-07-04T05:37:23;10.33;;;3.60;;
5805;SDS011;2929;50.810;8.342;2022-07-04T05:39:50;8.00;;;3.47;;
5805;SDS011;2929;50.810;8.342;2022-07-04T05:42:17;5.20;;;4.00;;
5805;SDS011;2929;50.810;8.342;2022-07-04T05:44:50;9.87;;;4.00;;
5805;SDS011;2929;50.810;8.342;2022-07-04T05:47:17;5.73;;;4.20;;
5805;SDS011;2929;50.810;8.342;2022-07-04T05:49:50;10.40;;;3.60;;
5805;SDS011;2929;50.810;8.342;2022-07-04T05:52:17;21.07;;;4.27;;
5805;SDS011;2929;50.810;8.342;2022-07-04T05:54:44;5.07;;;3.23;;
5805;SDS011;2929;50.810;8.342;2022-07-04T05:57:11;4.57;;;3.47;;
5805;SDS011;2929;50.810;8.342;2022-07-04T05:59:38;8.50;;;3.20;;
5805;SDS011;2929;50.810;8.342;2022-07-04T06:02:05;5.70;;;3.10;;
5805;SDS011;2929;50.810;8.342;2022-07-04T06:04:33;11.27;;;3.23;;
5805;SDS011;2929;50.810;8.342;2022-07-04T06:07:01;5.50;;;2.30;;
5805;SDS011;2929;50.810;8.342;2022-07-04T06:09:29;4.23;;;2.33;;
5805;SDS011;2929;50.810;8.342;2022-07-04T06:11:56;4.60;;;2.20;;
5805;SDS011;2929;50.810;8.342;2022-07-04T06:14:23;25.97;;;14.47;;
5805;SDS011;2929;50.810;8.342;2022-07-04T06:16:50;8.40;;;3.80;;
5805;SDS011;2929;50.810;8.342;2022-07-04T06:19:17;3.90;;;2.70;;
5805;SDS011;2929;50.810;8.342;2022-07-04T06:21:44;7.33;;;2.20;;
5805;SDS011;2929;50.810;8.342;2022-07-04T06:24:13;4.30;;;1.67;;
5805;SDS011;2929;50.810;8.342;2022-07-04T06:26:40;1.93;;;1.30;;
5805;SDS011;2929;50.810;8.342;2022-07-04T06:29:08;1.90;;;1.10;;
5805;SDS011;2929;50.810;8.342;2022-07-04T06:31:35;1.20;;;1.10;;
5805;SDS011;2929;50.810;8.342;2022-07-04T06:34:02;1.63;;;1.00;;
5805;SDS011;2929;50.810;8.342;2022-07-04T06:36:46;5.30;;;1.37;;
5805;SDS011;2929;50.810;8.342;2022-07-04T06:39:15;2.53;;;1.10;;
5805;SDS011;2929;50.810;8.342;2022-07-04T06:41:42;2.53;;;1.73;;
5805;SDS011;2929;50.810;8.342;2022-07-04T06:44:09;2.60;;;1.10;;
5805;SDS011;2929;50.810;8.342;2022-07-04T06:46:36;1.53;;;1.33;;
5805;SDS011;2929;50.810;8.342;2022-07-04T06:49:03;3.23;;;1.50;;
5805;SDS011;2929;50.810;8.342;2022-07-04T06:51:30;6.30;;;1.20;;
5805;SDS011;2929;50.810;8.342;2022-07-04T06:53:57;4.13;;;1.40;;
5805;SDS011;2929;50.810;8.342;2022-07-04T06:56:27;1.80;;;1.57;;
5805;SDS011;2929;50.810;8.342;2022-07-04T06:58:54;2.73;;;1.53;;
5805;SDS011;2929;50.810;8.342;2022-07-04T07:01:21;2.53;;;1.13;;
5805;SDS011;2929;50.810;8.342;2022-07-04T07:03:49;2.53;;;1.47;;
5805;SDS011;2929;50.810;8.342;2022-07-04T07:06:16;1.60;;;1.10;;
5805;SDS011;2929;50.810;8.342;2022-07-04T07:08:43;2.30;;;1.23;;
5805;SDS011;2929;50.810;8.342;2022-07-04T07:11:10;1.10;;;1.00;;
5805;SDS011;2929;50.810;8.342;2022-07-04T07:13:41;3.47;;;1.33;;
5805;SDS011;2929;50.810;8.342;2022-07-04T07:16:10;2.23;;;1.33;;
5805;SDS011;2929;50.810;8.342;2022-07-04T07:18:37;2.33;;;1.20;;
5805;SDS011;2929;50.810;8.342;2022-07-04T07:21:04;1.50;;;1.40;;
5805;SDS011;2929;50.810;8.342;2022-07-04T07:23:31;2.33;;;1.33;;
5805;SDS011;2929;50.810;8.342;2022-07-04T07:25:58;3.17;;;1.30;;
5805;SDS011;2929;50.810;8.342;2022-07-04T07:28:25;5.30;;;2.20;;
5805;SDS011;2929;50.810;8.342;2022-07-04T07:30:54;1.77;;;1.63;;
5805;SDS011;2929;50.810;8.342;2022-07-04T07:33:21;2.93;;;1.30;;
5805;SDS011;2929;50.810;8.342;2022-07-04T07:35:48;4.70;;;1.50;;
5805;SDS011;2929;50.810;8.342;2022-07-04T07:38:15;1.70;;;1.20;;
5805;SDS011;2929;50.810;8.342;2022-07-04T07:40:42;3.23;;;1.23;;
5805;SDS011;2929;50.810;8.342;2022-07-04T07:43:09;3.43;;;1.47;;
5805;SDS011;2929;50.810;8.342;2022-07-04T07:45:36;7.50;;;1.20;;
5805;SDS011;2929;50.810;8.342;2022-07-04T07:48:05;4.13;;;1.80;;
5805;SDS011;2929;50.810;8.342;2022-07-04T07:50:33;3.10;;;1.40;;
5805;SDS011;2929;50.810;8.342;2022-07-04T07:53:00;1.33;;;1.23;;
5805;SDS011;2929;50.810;8.342;2022-07-04T07:55:27;1.30;;;1.20;;
5805;SDS011;2929;50.810;8.342;2022-07-04T07:57:55;2.20;;;1.27;;
5805;SDS011;2929;50.810;8.342;2022-07-04T08:00:24;2.00;;;1.20;;
5805;SDS011;2929;50.810;8.342;2022-07-04T08:02:51;4.67;;;1.07;;
5805;SDS011;2929;50.810;8.342;2022-07-04T08:05:38;9.33;;;1.37;;
5805;SDS011;2929;50.810;8.342;2022-07-04T08:08:06;1.70;;;1.40;;
5805;SDS011;2929;50.810;8.342;2022-07-04T08:10:35;1.97;;;1.23;;
5805;SDS011;2929;50.810;8.342;2022-07-04T08:13:03;1.33;;;1.20;;
5805;SDS011;2929;50.810;8.342;2022-07-04T08:15:30;1.50;;;1.23;;
5805;SDS011;2929;50.810;8.342;2022-07-04T08:17:58;1.20;;;1.10;;
5805;SDS011;2929;50.810;8.342;2022-07-04T08:20:26;1.80;;;1.20;;
5805;SDS011;2929;50.810;8.342;2022-07-04T08:22:54;1.30;;;1.03;;
5805;SDS011;2929;50.810;8.342;2022-07-04T08:25:21;1.20;;;1.10;;
5805;SDS011;2929;50.810;8.342;2022-07-04T08:27:48;1.63;;;1.37;;
5805;SDS011;2929;50.810;8.342;2022-07-04T08:30:16;4.73;;;1.50;;
5805;SDS011;2929;50.810;8.342;2022-07-04T08:32:42;1.83;;;1.13;;
5805;SDS011;2929;50.810;8.342;2022-07-04T08:35:10;1.80;;;1.13;;
5805;SDS011;2929;50.810;8.342;2022-07-04T08:37:37;2.90;;;1.50;;
5805;SDS011;2929;50.810;8.342;2022-07-04T08:40:07;2.87;;;1.43;;
5805;SDS011;2929;50.810;8.342;2022-07-04T08:42:35;1.80;;;1.23;;
5805;SDS011;2929;50.810;8.342;2022-07-04T08:45:04;3.17;;;1.30;;
5805;SDS011;2929;50.810;8.342;2022-07-04T08:47:33;1.93;;;1.20;;
5805;SDS011;2929;50.810;8.342;2022-07-04T08:50:08;1.93;;;1.40;;
5805;SDS011;2929;50.810;8.342;2022-07-04T08:52:39;1.20;;;1.07;;
5805;SDS011;2929;50.810;8.342;2022-07-04T08:55:09;3.27;;;1.00;;
5805;SDS011;2929;50.810;8.342;2022-07-04T08:57:55;2.03;;;1.20;;
5805;SDS011;2929;50.810;8.342;2022-07-04T09:00:40;2.40;;;1.23;;
5805;SDS011;2929;50.810;8.342;2022-07-04T09:03:09;2.60;;;1.17;;
5805;SDS011;2929;50.810;8.342;2022-07-04T09:05:36;1.10;;;0.90;;
5805;SDS011;2929;50.810;8.342;2022-07-04T09:08:04;3.37;;;2.40;;
5805;SDS011;2929;50.810;8.342;2022-07-04T09:10:33;1.93;;;1.00;;
5805;SDS011;2929;50.810;8.342;2022-07-04T09:13:01;1.23;;;1.03;;
5805;SDS011;2929;50.810;8.342;2022-07-04T09:15:29;4.53;;;1.30;;
5805;SDS011;2929;50.810;8.342;2022-07-04T09:17:56;1.80;;;1.13;;
5805;SDS011;2929;50.810;8.342;2022-07-04T09:20:24;2.30;;;1.17;;
5805;SDS011;2929;50.810;8.342;2022-07-04T09:22:52;1.80;;;1.20;;
5805;SDS011;2929;50.810;8.342;2022-07-04T09:25:21;3.07;;;1.40;;
5805;SDS011;2929;50.810;8.342;2022-07-04T09:27:51;1.47;;;1.20;;
5805;SDS011;2929;50.810;8.342;2022-07-04T09:30:20;1.00;;;1.00;;
5805;SDS011;2929;50.810;8.342;2022-07-04T09:32:48;4.00;;;1.10;;
5805;SDS011;2929;50.810;8.342;2022-07-04T09:35:18;1.70;;;1.33;;
5805;SDS011;2929;50.810;8.342;2022-07-04T09:37:47;1.40;;;1.30;;
5805;SDS011;2929;50.810;8.342;2022-07-04T09:40:23;2.60;;;1.03;;
5805;SDS011;2929;50.810;8.342;2022-07-04T09:42:52;1.10;;;1.00;;
5805;SDS011;2929;50.810;8.342;2022-07-04T09:45:20;2.77;;;1.30;;
5805;SDS011;2929;50.810;8.342;2022-07-04T09:47:53;2.40;;;1.00;;
5805;SDS011;2929;50.810;8.342;2022-07-04T09:50:23;1.37;;;1.00;;
5805;SDS011;2929;50.810;8.342;2022-07-04T09:52:53;2.53;;;1.00;;
5805;SDS011;2929;50.810;8.342;2022-07-04T09:55:23;1.27;;;1.10;;
5805;SDS011;2929;50.810;8.342;2022-07-04T09:57:56;0.80;;;0.80;;
5805;SDS011;2929;50.810;8.342;2022-07-04T10:00:28;1.23;;;1.00;;
5805;SDS011;2929;50.810;8.342;2022-07-04T10:03:15;2.50;;;2.17;;
5805;SDS011;2929;50.810;8.342;2022-07-04T10:05:44;1.87;;;1.13;;
5805;SDS011;2929;50.810;8.342;2022-07-04T10:08:12;4.97;;;2.20;;
5805;SDS011;2929;50.810;8.342;2022-07-04T10:10:40;1.13;;;1.03;;
5805;SDS011;2929;50.810;8.342;2022-07-04T10:13:11;2.73;;;1.20;;
5805;SDS011;2929;50.810;8.342;2022-07-04T10:15:39;0.70;;;0.70;;
5805;SDS011;2929;50.810;8.342;2022-07-04T10:18:07;1.20;;;0.90;;
5805;SDS011;2929;50.810;8.342;2022-07-04T10:20:35;2.20;;;0.90;;
5805;SDS011;2929;50.810;8.342;2022-07-04T10:23:03;3.23;;;1.17;;
5805;SDS011;2929;50.810;8.342;2022-07-04T10:25:30;1.50;;;0.90;;
5805;SDS011;2929;50.810;8.342;2022-07-04T10:28:03;1.30;;;0.83;;
5805;SDS011;2929;50.810;8.342;2022-07-04T10:30:37;1.57;;;0.93;;
5805;SDS011;2929;50.810;8.342;2022-07-04T10:33:07;1.87;;;0.80;;
5805;SDS011;2929;50.810;8.342;2022-07-04T10:35:48;2.00;;;1.10;;
5805;SDS011;2929;50.810;8.342;2022-07-04T10:38:19;1.80;;;1.00;;
5805;SDS011;2929;50.810;8.342;2022-07-04T10:40:47;0.90;;;0.90;;
5805;SDS011;2929;50.810;8.342;2022-07-04T10:46:32;1.70;;;0.80;;
5805;SDS011;2929;50.810;8.342;2022-07-04T10:49:04;2.10;;;1.00;;
5805;SDS011;2929;50.810;8.342;2022-07-04T10:51:35;2.57;;;1.00;;
5805;SDS011;2929;50.810;8.342;2022-07-04T10:54:07;1.57;;;1.00;;
5805;SDS011;2929;50.810;8.342;2022-07-04T10:56:38;1.00;;;1.00;;
5805;SDS011;2929;50.810;8.342;2022-07-04T10:59:08;1.63;;;0.90;;
5805;SDS011;2929;50.810;8.342;2022-07-04T11:01:38;1.07;;;0.73;;
5805;SDS011;2929;50.810;8.342;2022-07-04T11:04:05;2.20;;;1.00;;
5805;SDS011;2929;50.810;8.342;2022-07-04T11:06:51;1.43;;;0.87;;
5805;SDS011;2929;50.810;8.342;2022-07-04T11:09:20;2.10;;;1.07;;
5805;SDS011;2929;50.810;8.342;2022-07-04T11:11:54;1.53;;;1.10;;
5805;SDS011;2929;50.810;8.342;2022-07-04T11:14:32;1.53;;;0.90;;
5805;SDS011;2929;50.810;8.342;2022-07-04T11:17:02;2.20;;;0.93;;
5805;SDS011;2929;50.810;8.342;2022-07-04T11:19:29;1.00;;;0.73;;
5805;SDS011;2929;50.810;8.342;2022-07-04T11:21:57;2.37;;;0.80;;
5805;SDS011;2929;50.810;8.342;2022-07-04T11:24:25;3.67;;;0.80;;
5805;SDS011;2929;50.810;8.342;2022-07-04T11:26:52;1.17;;;0.80;;
5805;SDS011;2929;50.810;8.342;2022-07-04T11:29:19;2.57;;;1.37;;
5805;SDS011;2929;50.810;8.342;2022-07-04T11:31:47;0.80;;;0.80;;
5805;SDS011;2929;50.810;8.342;2022-07-04T11:34:17;2.93;;;0.87;;
5805;SDS011;2929;50.810;8.342;2022-07-04T11:36:46;1.10;;;0.70;;
5805;SDS011;2929;50.810;8.342;2022-07-04T11:39:14;2.57;;;0.90;;
5805;SDS011;2929;50.810;8.342;2022-07-04T11:41:45;0.83;;;0.83;;
5805;SDS011;2929;50.810;8.342;2022-07-04T11:44:31;1.40;;;0.80;;
5805;SDS011;2929;50.810;8.342;2022-07-04T11:47:18;1.73;;;0.90;;
5805;SDS011;2929;50.810;8.342;2022-07-04T11:49:48;0.60;;;0.60;;
5805;SDS011;2929;50.810;8.342;2022-07-04T11:52:17;1.63;;;0.70;;
5805;SDS011;2929;50.810;8.342;2022-07-04T11:54:46;2.30;;;0.80;;
5805;SDS011;2929;50.810;8.342;2022-07-04T11:57:16;7.50;;;0.90;;
5805;SDS011;2929;50.810;8.342;2022-07-04T11:59:55;5.20;;;0.80;;
5805;SDS011;2929;50.810;8.342;2022-07-04T12:02:23;1.47;;;0.80;;
5805;SDS011;2929;50.810;8.342;2022-07-04T12:04:57;1.33;;;0.77;;
5805;SDS011;2929;50.810;8.342;2022-07-04T12:07:24;4.37;;;0.80;;
5805;SDS011;2929;50.810;8.342;2022-07-04T12:09:53;0.70;;;0.60;;
5805;SDS011;2929;50.810;8.342;2022-07-04T12:12:20;0.80;;;0.80;;
5805;SDS011;2929;50.810;8.342;2022-07-04T12:14:58;1.50;;;0.90;;
5805;SDS011;2929;50.810;8.342;2022-07-04T12:17:33;2.83;;;0.77;;
5805;SDS011;2929;50.810;8.342;2022-07-04T12:20:10;1.07;;;0.70;;
5805;SDS011;2929;50.810;8.342;2022-07-04T12:22:39;1.47;;;0.80;;
5805;SDS011;2929;50.810;8.342;2022-07-04T12:25:08;1.00;;;0.70;;
5805;SDS011;2929;50.810;8.342;2022-07-04T12:27:56;1.33;;;0.80;;
5805;SDS011;2929;50.810;8.342;2022-07-04T12:30:25;3.77;;;0.90;;
5805;SDS011;2929;50.810;8.342;2022-07-04T12:32:57;0.60;;;0.60;;
5805;SDS011;2929;50.810;8.342;2022-07-04T12:35:33;1.33;;;0.60;;
5805;SDS011;2929;50.810;8.342;2022-07-04T12:38:02;5.60;;;0.80;;
5805;SDS011;2929;50.810;8.342;2022-07-04T12:40:31;1.80;;;0.70;;
5805;SDS011;2929;50.810;8.342;2022-07-04T12:42:59;3.10;;;0.70;;
5805;SDS011;2929;50.810;8.342;2022-07-04T12:45:26;1.40;;;0.70;;
5805;SDS011;2929;50.810;8.342;2022-07-04T12:48:19;0.70;;;0.60;;
5805;SDS011;2929;50.810;8.342;2022-07-04T12:50:52;5.70;;;4.67;;
5805;SDS011;2929;50.810;8.342;2022-07-04T12:53:21;1.23;;;0.60;;
5805;SDS011;2929;50.810;8.342;2022-07-04T12:55:48;0.70;;;0.60;;
5805;SDS011;2929;50.810;8.342;2022-07-04T12:58:16;1.13;;;0.73;;
5805;SDS011;2929;50.810;8.342;2022-07-04T13:00:43;2.40;;;1.00;;
5805;SDS011;2929;50.810;8.342;2022-07-04T13:03:11;3.37;;;0.70;;
5805;SDS011;2929;50.810;8.342;2022-07-04T13:05:38;0.87;;;0.67;;
5805;SDS011;2929;50.810;8.342;2022-07-04T13:08:06;1.70;;;0.67;;
5805;SDS011;2929;50.810;8.342;2022-07-04T13:10:34;8.10;;;1.00;;
5805;SDS011;2929;50.810;8.342;2022-07-04T13:13:01;12.60;;;1.90;;
5805;SDS011;2929;50.810;8.342;2022-07-04T13:15:28;0.80;;;0.80;;
5805;SDS011;2929;50.810;8.342;2022-07-04T13:17:55;1.33;;;0.67;;
5805;SDS011;2929;50.810;8.342;2022-07-04T13:20:22;2.60;;;1.00;;
5805;SDS011;2929;50.810;8.342;2022-07-04T13:22:49;1.10;;;0.70;;
5805;SDS011;2929;50.810;8.342;2022-07-04T13:25:18;1.33;;;0.70;;
5805;SDS011;2929;50.810;8.342;2022-07-04T13:27:47;1.83;;;0.80;;
5805;SDS011;2929;50.810;8.342;2022-07-04T13:30:14;4.30;;;0.70;;
5805;SDS011;2929;50.810;8.342;2022-07-04T13:32:41;1.63;;;0.77;;
5805;SDS011;2929;50.810;8.342;2022-07-04T13:35:08;2.30;;;0.93;;
5805;SDS011;2929;50.810;8.342;2022-07-04T13:37:36;0.97;;;0.77;;
5805;SDS011;2929;50.810;8.342;2022-07-04T13:40:03;1.13;;;0.60;;
5805;SDS011;2929;50.810;8.342;2022-07-04T13:42:33;1.10;;;0.80;;
5805;SDS011;2929;50.810;8.342;2022-07-04T13:45:17;2.00;;;1.00;;
5805;SDS011;2929;50.810;8.342;2022-07-04T13:47:44;0.97;;;0.80;;
5805;SDS011;2929;50.810;8.342;2022-07-04T13:50:11;0.87;;;0.60;;
5805;SDS011;2929;50.810;8.342;2022-07-04T13:52:38;1.27;;;0.77;;
5805;SDS011;2929;50.810;8.342;2022-07-04T13:55:06;0.77;;;0.60;;
5805;SDS011;2929;50.810;8.342;2022-07-04T13:57:35;1.17;;;0.70;;
5805;SDS011;2929;50.810;8.342;2022-07-04T14:00:02;0.80;;;0.80;;
5805;SDS011;2929;50.810;8.342;2022-07-04T14:02:31;1.80;;;1.10;;
5805;SDS011;2929;50.810;8.342;2022-07-04T14:04:59;4.20;;;0.90;;
5805;SDS011;2929;50.810;8.342;2022-07-04T14:07:26;8.13;;;0.90;;
5805;SDS011;2929;50.810;8.342;2022-07-04T14:09:53;1.87;;;0.80;;
5805;SDS011;2929;50.810;8.342;2022-07-04T14:12:20;3.70;;;0.77;;
5805;SDS011;2929;50.810;8.342;2022-07-04T14:14:49;3.73;;;0.90;;
5805;SDS011;2929;50.810;8.342;2022-07-04T14:17:17;1.10;;;0.77;;
5805;SDS011;2929;50.810;8.342;2022-07-04T14:19:47;2.93;;;0.90;;
5805;SDS011;2929;50.810;8.342;2022-07-04T14:22:14;1.20;;;0.70;;
5805;SDS011;2929;50.810;8.342;2022-07-04T14:24:41;1.30;;;0.90;;
5805;SDS011;2929;50.810;8.342;2022-07-04T14:27:09;9.53;;;1.37;;
5805;SDS011;2929;50.810;8.342;2022-07-04T14:29:36;2.00;;;0.70;;
5805;SDS011;2929;50.810;8.342;2022-07-04T14:32:05;4.00;;;1.00;;
5805;SDS011;2929;50.810;8.342;2022-07-04T14:34:32;2.23;;;0.90;;
5805;SDS011;2929;50.810;8.342;2022-07-04T14:37:00;2.30;;;0.83;;
5805;SDS011;2929;50.810;8.342;2022-07-04T14:39:28;4.53;;;0.80;;
5805;SDS011;2929;50.810;8.342;2022-07-04T14:41:55;0.80;;;0.80;;
5805;SDS011;2929;50.810;8.342;2022-07-04T14:44:22;2.03;;;0.80;;
5805;SDS011;2929;50.810;8.342;2022-07-04T14:46:49;17.50;;;1.60;;
5805;SDS011;2929;50.810;8.342;2022-07-04T14:49:18;7.67;;;1.00;;
5805;SDS011;2929;50.810;8.342;2022-07-04T14:51:45;3.60;;;0.63;;
5805;SDS011;2929;50.810;8.342;2022-07-04T14:54:13;2.20;;;0.73;;
5805;SDS011;2929;50.810;8.342;2022-07-04T14:56:40;1.90;;;0.80;;
5805;SDS011;2929;50.810;8.342;2022-07-04T14:59:09;0.80;;;0.80;;
5805;SDS011;2929;50.810;8.342;2022-07-04T15:01:36;5.47;;;1.13;;
5805;SDS011;2929;50.810;8.342;2022-07-04T15:04:04;1.03;;;0.60;;
5805;SDS011;2929;50.810;8.342;2022-07-04T15:06:32;1.00;;;0.90;;
5805;SDS011;2929;50.810;8.342;2022-07-04T15:09:01;3.17;;;0.90;;
5805;SDS011;2929;50.810;8.342;2022-07-04T15:11:30;1.60;;;0.73;;
5805;SDS011;2929;50.810;8.342;2022-07-04T15:13:57;0.50;;;0.50;;
5805;SDS011;2929;50.810;8.342;2022-07-04T15:16:24;1.77;;;1.30;;
5805;SDS011;2929;50.810;8.342;2022-07-04T15:18:51;0.80;;;0.70;;
5805;SDS011;2929;50.810;8.342;2022-07-04T15:21:19;1.23;;;0.73;;
5805;SDS011;2929;50.810;8.342;2022-07-04T15:24:05;5.30;;;0.97;;
5805;SDS011;2929;50.810;8.342;2022-07-04T15:26:40;1.83;;;0.90;;
5805;SDS011;2929;50.810;8.342;2022-07-04T15:29:08;1.33;;;0.70;;